createdAt,value
2017-12-30T00:00:02.220Z,1.40
2017-12-30T00:02:29.747Z,1.30
2017-12-30T00:04:58.065Z,1.40
2017-12-30T00:07:25.594Z,1.40
2017-12-30T00:09:53.142Z,1.40
2017-12-30T00:12:21.453Z,1.40
2017-12-30T00:14:49.036Z,1.40
2017-12-30T00:17:16.568Z,1.40
2017-12-30T00:19:44.115Z,1.50
2017-12-30T00:22:11.617Z,1.50
2017-12-30T00:24:39.263Z,1.50
2017-12-30T00:27:06.823Z,1.50
2017-12-30T00:29:34.372Z,1.50
2017-12-30T00:32:01.899Z,1.50
2017-12-30T00:34:30.626Z,1.50
2017-12-30T00:36:59.039Z,1.50
2017-12-30T00:39:27.439Z,1.60
2017-12-30T00:41:55.017Z,1.60
2017-12-30T00:44:22.856Z,1.60
2017-12-30T00:46:50.439Z,1.60
2017-12-30T00:49:17.995Z,1.60
2017-12-30T00:51:45.591Z,1.60
2017-12-30T00:54:13.241Z,1.60
2017-12-30T00:56:40.757Z,1.60
2017-12-30T00:59:08.327Z,1.70
2017-12-30T01:01:35.852Z,1.70
2017-12-30T01:04:03.485Z,1.80
2017-12-30T01:06:31.026Z,1.70
2017-12-30T01:08:58.541Z,1.60
2017-12-30T01:11:26.045Z,1.70
2017-12-30T01:13:53.539Z,1.70
2017-12-30T01:16:21.137Z,1.70
2017-12-30T01:18:49.398Z,1.80
2017-12-30T01:21:17.698Z,1.80
2017-12-30T01:23:45.189Z,1.80
2017-12-30T01:26:12.702Z,1.80
2017-12-30T01:28:40.966Z,1.80
2017-12-30T01:31:09.686Z,1.90
2017-12-30T01:33:37.178Z,1.80
2017-12-30T01:36:04.727Z,1.90
2017-12-30T01:38:32.202Z,1.90
2017-12-30T01:40:59.794Z,1.80
2017-12-30T01:43:28.054Z,1.80
2017-12-30T01:45:55.562Z,1.80
2017-12-30T01:48:23.054Z,1.90
2017-12-30T01:50:50.653Z,1.90
2017-12-30T01:53:18.934Z,1.80
2017-12-30T01:55:46.433Z,1.80
2017-12-30T01:58:13.947Z,1.80
2017-12-30T02:00:41.442Z,1.80
2017-12-30T02:03:08.954Z,1.80
2017-12-30T02:05:37.221Z,1.90
2017-12-30T02:08:05.616Z,1.80
2017-12-30T02:10:33.197Z,1.80
2017-12-30T02:13:00.778Z,1.80
2017-12-30T02:15:29.130Z,1.90
2017-12-30T02:17:56.997Z,1.90
2017-12-30T02:20:24.560Z,1.80
2017-12-30T02:22:52.744Z,1.80
2017-12-30T02:25:21.494Z,1.90
2017-12-30T02:27:49.782Z,1.80
2017-12-30T02:30:17.333Z,1.80
2017-12-30T02:32:44.895Z,1.80
2017-12-30T02:35:12.386Z,1.80
2017-12-30T02:37:39.893Z,1.80
2017-12-30T02:40:08.154Z,1.90
2017-12-30T02:42:35.749Z,1.90
2017-12-30T02:45:03.306Z,1.90
2017-12-30T02:47:30.866Z,1.80
2017-12-30T02:49:58.378Z,1.80
2017-12-30T02:52:25.874Z,1.80
2017-12-30T02:54:54.146Z,1.70
2017-12-30T02:57:22.406Z,1.70
2017-12-30T02:59:49.913Z,1.70
2017-12-30T03:02:17.406Z,1.80
2017-12-30T03:04:45.008Z,1.70
2017-12-30T03:07:12.510Z,1.70
2017-12-30T03:09:40.018Z,1.70
2017-12-30T03:12:08.298Z,1.60
2017-12-30T03:14:35.805Z,1.60
2017-12-30T03:17:03.294Z,1.60
2017-12-30T03:19:31.589Z,1.40
2017-12-30T03:21:59.078Z,1.40
2017-12-30T03:24:26.581Z,1.30
2017-12-30T03:26:54.069Z,1.40
2017-12-30T03:29:21.623Z,1.30
2017-12-30T03:31:49.119Z,1.30
2017-12-30T03:34:16.640Z,1.30
2017-12-30T03:36:44.146Z,1.20
2017-12-30T03:39:11.685Z,1.10
2017-12-30T03:41:39.208Z,1.10
2017-12-30T03:44:06.745Z,1.10
2017-12-30T03:46:35.064Z,1.00
2017-12-30T03:49:02.631Z,1.00
2017-12-30T03:51:30.194Z,1.00
2017-12-30T03:53:57.686Z,1.00
2017-12-30T03:56:25.195Z,1.00
2017-12-30T03:58:52.685Z,1.00
2017-12-30T04:01:20.298Z,0.90
2017-12-30T04:03:48.549Z,0.90
2017-12-30T04:06:16.058Z,0.80
2017-12-30T04:08:43.551Z,0.90
2017-12-30T04:11:11.066Z,0.90
2017-12-30T04:13:38.553Z,0.80
2017-12-30T04:16:06.062Z,0.90
2017-12-30T04:18:34.317Z,1.00
2017-12-30T04:21:02.590Z,0.90
2017-12-30T04:23:30.082Z,0.80
2017-12-30T04:25:57.594Z,0.90
2017-12-30T04:28:25.090Z,0.90
2017-12-30T04:30:52.649Z,1.00
2017-12-30T04:33:20.147Z,1.00
2017-12-30T04:35:47.654Z,0.90
2017-12-30T04:38:15.913Z,0.90
2017-12-30T04:40:43.422Z,0.80
2017-12-30T04:43:10.922Z,0.90
2017-12-30T04:45:38.436Z,1.00
2017-12-30T04:48:05.975Z,1.00
2017-12-30T04:50:33.486Z,1.10
2017-12-30T04:53:00.992Z,1.10
2017-12-30T04:55:28.491Z,1.10
2017-12-30T04:57:56.002Z,1.10
2017-12-30T05:00:23.557Z,1.10
2017-12-30T05:02:51.832Z,1.20
2017-12-30T05:05:20.086Z,1.20
2017-12-30T05:07:47.614Z,1.20
2017-12-30T05:10:15.130Z,1.20
2017-12-30T05:12:42.910Z,1.20
2017-12-30T05:15:10.470Z,1.20
2017-12-30T05:17:38.015Z,1.10
2017-12-30T05:20:05.510Z,1.00
2017-12-30T05:22:33.018Z,0.80
2017-12-30T05:25:01.307Z,0.60
2017-12-30T05:27:28.814Z,0.60
2017-12-30T05:29:56.317Z,0.50
2017-12-30T05:32:24.598Z,0.50
2017-12-30T05:34:52.086Z,0.50
2017-12-30T05:37:19.578Z,0.40
2017-12-30T05:39:47.086Z,0.40
2017-12-30T05:42:14.632Z,0.40
2017-12-30T05:44:42.146Z,0.40
2017-12-30T05:47:09.635Z,0.40
2017-12-30T05:49:37.914Z,0.40
2017-12-30T05:52:06.194Z,0.30
2017-12-30T05:54:33.754Z,0.30
2017-12-30T05:57:01.250Z,0.20
2017-12-30T05:59:28.769Z,0.10
2017-12-30T06:01:56.268Z,0.00
2017-12-30T06:04:23.781Z,-0.10
2017-12-30T06:06:51.279Z,-0.10
2017-12-30T06:09:18.790Z,-0.10
2017-12-30T06:11:47.052Z,-0.10
2017-12-30T06:14:15.337Z,-0.10
2017-12-30T06:16:43.594Z,-0.20
2017-12-30T06:19:11.186Z,-0.20
2017-12-30T06:21:38.704Z,-0.20
2017-12-30T06:24:06.528Z,-0.20
2017-12-30T06:26:34.298Z,-0.10
2017-12-30T06:29:01.855Z,0.00
2017-12-30T06:31:30.571Z,0.00
2017-12-30T06:33:58.069Z,0.00
2017-12-30T06:36:26.345Z,0.10
2017-12-30T06:38:54.600Z,0.10
2017-12-30T06:41:22.106Z,0.10
2017-12-30T06:43:49.602Z,0.10
2017-12-30T06:46:17.109Z,0.00
2017-12-30T06:48:44.589Z,0.00
2017-12-30T06:51:12.103Z,-0.10
2017-12-30T06:53:40.375Z,-0.10
2017-12-30T06:56:08.650Z,-0.10
2017-12-30T06:58:36.910Z,-0.10
2017-12-30T07:01:04.431Z,-0.10
2017-12-30T07:03:31.922Z,0.00
2017-12-30T07:05:59.518Z,0.00
2017-12-30T07:08:27.013Z,0.00
2017-12-30T07:10:54.516Z,0.10
2017-12-30T07:13:22.810Z,0.00
2017-12-30T07:15:50.374Z,0.00
2017-12-30T07:18:17.871Z,0.10
2017-12-30T07:20:45.378Z,0.10
2017-12-30T07:23:13.661Z,0.10
2017-12-30T07:25:41.174Z,0.10
2017-12-30T07:28:08.661Z,0.10
2017-12-30T07:30:36.938Z,0.20
2017-12-30T07:33:05.213Z,0.20
2017-12-30T07:35:33.471Z,0.20
2017-12-30T07:38:00.978Z,0.20
2017-12-30T07:40:28.522Z,0.20
2017-12-30T07:42:56.029Z,0.30
2017-12-30T07:45:23.541Z,0.20
2017-12-30T07:47:51.101Z,0.30
2017-12-30T07:50:18.602Z,0.40
2017-12-30T07:52:46.167Z,0.40
2017-12-30T07:55:13.666Z,0.50
2017-12-30T07:57:41.222Z,0.60
2017-12-30T08:00:09.506Z,0.80
2017-12-30T08:02:37.074Z,0.80
2017-12-30T08:05:04.572Z,0.90
2017-12-30T08:07:32.078Z,0.90
2017-12-30T08:10:00.377Z,0.90
2017-12-30T08:12:27.873Z,0.90
2017-12-30T08:14:55.403Z,0.90
2017-12-30T08:17:22.907Z,0.90
2017-12-30T08:19:50.400Z,0.90
2017-12-30T08:22:18.170Z,0.80
2017-12-30T08:24:45.663Z,0.70
2017-12-30T08:27:13.158Z,0.80
2017-12-30T08:29:41.434Z,0.60
2017-12-30T08:32:10.146Z,0.60
2017-12-30T08:34:37.659Z,0.60
2017-12-30T08:37:05.149Z,0.60
2017-12-30T08:39:32.669Z,0.70
2017-12-30T08:42:00.172Z,0.70
2017-12-30T08:44:27.685Z,0.70
2017-12-30T08:46:55.187Z,0.70
2017-12-30T08:49:22.702Z,0.80
2017-12-30T08:51:50.194Z,0.90
2017-12-30T08:54:17.702Z,1.00
2017-12-30T08:56:45.198Z,1.30
2017-12-30T08:59:13.474Z,1.40
2017-12-30T09:01:41.732Z,1.60
2017-12-30T09:04:09.247Z,1.50
2017-12-30T09:06:36.743Z,1.40
2017-12-30T09:09:04.257Z,1.40
2017-12-30T09:11:31.750Z,1.50
2017-12-30T09:13:59.510Z,1.30
2017-12-30T09:16:27.000Z,1.50
2017-12-30T09:18:55.289Z,1.50
2017-12-30T09:21:22.789Z,1.50
2017-12-30T09:23:50.349Z,1.60
2017-12-30T09:26:17.896Z,1.80
2017-12-30T09:28:45.627Z,1.80
2017-12-30T09:31:13.190Z,1.80
2017-12-30T09:33:40.714Z,2.00
2017-12-30T09:36:08.222Z,2.00
2017-12-30T09:38:35.723Z,1.90
2017-12-30T09:41:04.020Z,2.00
2017-12-30T09:43:32.506Z,2.20
2017-12-30T09:46:00.794Z,2.00
2017-12-30T09:48:28.296Z,2.00
2017-12-30T09:50:55.810Z,2.00
2017-12-30T09:53:23.330Z,2.10
2017-12-30T09:55:50.853Z,2.10
2017-12-30T09:58:18.350Z,2.00
2017-12-30T10:00:45.862Z,2.10
2017-12-30T10:03:13.363Z,2.20
2017-12-30T10:05:40.873Z,2.00
2017-12-30T10:08:08.370Z,2.10
2017-12-30T10:10:35.930Z,2.20
2017-12-30T10:13:03.410Z,2.30
2017-12-30T10:15:31.699Z,1.90
2017-12-30T10:17:59.967Z,2.00
2017-12-30T10:20:28.226Z,2.00
2017-12-30T10:22:55.738Z,2.00
2017-12-30T10:25:23.240Z,1.90
2017-12-30T10:27:50.758Z,1.80
2017-12-30T10:30:18.249Z,1.70
2017-12-30T10:32:45.761Z,1.70
2017-12-30T10:35:13.275Z,1.60
2017-12-30T10:37:40.785Z,1.80
2017-12-30T10:40:08.694Z,1.70
2017-12-30T10:42:36.207Z,1.70
2017-12-30T10:45:03.698Z,1.70
2017-12-30T10:47:31.216Z,1.70
2017-12-30T10:49:59.087Z,1.60
2017-12-30T10:52:26.611Z,1.60
2017-12-30T10:54:54.925Z,1.80
2017-12-30T10:57:22.558Z,1.80
2017-12-30T10:59:50.061Z,1.70
2017-12-30T11:02:17.589Z,1.70
2017-12-30T11:04:45.088Z,1.60
2017-12-30T11:07:12.599Z,1.80
2017-12-30T11:09:40.090Z,1.80
2017-12-30T11:12:07.602Z,2.00
2017-12-30T11:14:35.858Z,1.80
2017-12-30T11:17:03.379Z,1.80
2017-12-30T11:19:30.878Z,1.70
2017-12-30T11:21:58.395Z,1.90
2017-12-30T11:24:25.890Z,1.90
2017-12-30T11:26:53.386Z,1.80
2017-12-30T11:29:20.894Z,1.80
2017-12-30T11:31:48.397Z,1.80
2017-12-30T11:34:15.914Z,2.00
2017-12-30T11:36:43.413Z,1.90
2017-12-30T11:39:10.926Z,2.00
2017-12-30T11:41:38.515Z,2.20
2017-12-30T11:44:06.821Z,2.10
2017-12-30T11:46:34.357Z,2.10
2017-12-30T11:49:01.902Z,2.20
2017-12-30T11:51:30.245Z,2.20
2017-12-30T11:53:58.819Z,2.20
2017-12-30T11:56:26.378Z,2.30
2017-12-30T11:58:53.961Z,2.10
2017-12-30T12:01:21.506Z,2.30
2017-12-30T12:03:49.046Z,2.10
2017-12-30T12:06:16.574Z,2.10
2017-12-30T12:08:44.888Z,2.10
2017-12-30T12:11:12.497Z,2.10
2017-12-30T12:13:40.872Z,2.40
2017-12-30T12:16:09.203Z,2.30
2017-12-30T12:18:36.741Z,2.30
2017-12-30T12:21:04.294Z,2.40
2017-12-30T12:23:31.960Z,2.40
2017-12-30T12:25:59.497Z,2.50
2017-12-30T12:28:27.845Z,2.70
2017-12-30T12:30:55.432Z,2.70
2017-12-30T12:33:23.843Z,2.60
2017-12-30T12:35:51.371Z,2.60
2017-12-30T12:38:20.275Z,3.00
2017-12-30T12:40:47.805Z,3.00
2017-12-30T12:43:15.305Z,3.00
2017-12-30T12:45:42.814Z,3.20
2017-12-30T12:48:10.569Z,3.30
2017-12-30T12:50:38.078Z,3.30
2017-12-30T12:53:05.578Z,3.40
2017-12-30T12:55:33.094Z,3.40
2017-12-30T12:58:00.603Z,3.50
2017-12-30T13:00:28.161Z,3.50
2017-12-30T13:02:55.654Z,3.60
2017-12-30T13:05:23.937Z,3.70
2017-12-30T13:07:51.770Z,3.70
2017-12-30T13:10:19.289Z,3.70
2017-12-30T13:12:46.836Z,3.80
2017-12-30T13:15:14.330Z,3.80
2017-12-30T13:17:41.842Z,3.80
2017-12-30T13:20:09.342Z,3.90
2017-12-30T13:22:37.627Z,3.90
2017-12-30T13:25:05.121Z,3.90
2017-12-30T13:27:32.637Z,3.90
2017-12-30T13:30:00.139Z,3.90
2017-12-30T13:32:27.651Z,4.00
2017-12-30T13:34:55.174Z,4.10
2017-12-30T13:37:22.732Z,4.20
2017-12-30T13:39:50.254Z,4.20
2017-12-30T13:42:18.575Z,4.30
2017-12-30T13:44:46.097Z,4.30
2017-12-30T13:47:14.445Z,4.40
2017-12-30T13:49:41.960Z,4.40
2017-12-30T13:52:09.478Z,4.40
2017-12-30T13:54:36.971Z,4.50
2017-12-30T13:57:04.490Z,4.40
2017-12-30T13:59:32.033Z,4.60
2017-12-30T14:01:59.574Z,4.70
2017-12-30T14:04:27.066Z,4.70
2017-12-30T14:06:54.568Z,4.80
2017-12-30T14:09:22.082Z,4.80
2017-12-30T14:11:49.575Z,4.90
2017-12-30T14:14:17.090Z,5.00
2017-12-30T14:16:44.591Z,5.00
2017-12-30T14:19:12.101Z,5.00
2017-12-30T14:21:39.590Z,5.10
2017-12-30T14:24:07.922Z,5.00
2017-12-30T14:26:35.422Z,5.00
2017-12-30T14:29:03.694Z,5.20
2017-12-30T14:31:31.953Z,5.30
2017-12-30T14:33:59.477Z,5.30
2017-12-30T14:36:26.970Z,5.40
2017-12-30T14:38:54.482Z,5.40
2017-12-30T14:41:21.978Z,5.50
2017-12-30T14:43:49.486Z,5.60
2017-12-30T14:46:17.021Z,5.60
2017-12-30T14:48:45.348Z,5.70
2017-12-30T14:51:13.651Z,5.90
2017-12-30T14:53:41.196Z,5.80
2017-12-30T14:56:08.735Z,5.80
2017-12-30T14:58:36.277Z,5.80
2017-12-30T15:01:03.807Z,5.90
2017-12-30T15:03:32.096Z,6.00
2017-12-30T15:05:59.628Z,5.90
2017-12-30T15:11:01.158Z,6.00
2017-12-30T15:13:28.692Z,6.00
2017-12-30T15:15:56.270Z,6.10
2017-12-30T15:18:23.900Z,6.10
2017-12-30T15:20:51.490Z,6.10
2017-12-30T15:23:19.148Z,6.10
2017-12-30T15:25:46.711Z,6.10
2017-12-30T15:28:14.252Z,6.10
2017-12-30T15:30:41.800Z,6.20
2017-12-30T15:33:11.452Z,6.30
2017-12-30T15:35:39.063Z,6.30
2017-12-30T15:38:07.450Z,6.40
2017-12-30T15:40:35.117Z,6.50
2017-12-30T15:43:02.707Z,6.50
2017-12-30T15:45:30.387Z,6.40
2017-12-30T15:47:57.935Z,6.40
2017-12-30T15:50:26.167Z,6.30
2017-12-30T15:52:53.715Z,6.30
2017-12-30T15:55:21.463Z,6.40
2017-12-30T15:57:49.795Z,6.50
2017-12-30T16:00:17.440Z,6.50
2017-12-30T16:02:45.518Z,6.50
2017-12-30T16:05:13.768Z,6.60
2017-12-30T16:07:41.427Z,6.50
2017-12-30T16:10:08.975Z,6.60
2017-12-30T16:12:37.455Z,6.60
2017-12-30T16:15:05.005Z,6.60
2017-12-30T16:17:33.380Z,6.70
2017-12-30T16:20:01.694Z,6.70
2017-12-30T16:22:29.317Z,6.70
2017-12-30T16:24:56.838Z,6.70
2017-12-30T16:27:24.453Z,6.80
2017-12-30T16:29:52.844Z,6.70
2017-12-30T16:32:20.396Z,6.70
2017-12-30T16:34:48.693Z,6.80
2017-12-30T16:37:16.280Z,6.90
2017-12-30T16:39:43.929Z,6.90
2017-12-30T16:42:11.520Z,6.90
2017-12-30T16:44:39.868Z,7.10
2017-12-30T16:47:07.496Z,7.10
2017-12-30T16:49:35.788Z,7.10
2017-12-30T16:52:03.423Z,7.10
2017-12-30T16:54:31.762Z,7.30
2017-12-30T16:56:59.352Z,7.20
2017-12-30T16:59:26.956Z,7.30
2017-12-30T17:01:54.556Z,7.30
2017-12-30T17:04:22.165Z,7.40
2017-12-30T17:06:49.767Z,7.50
2017-12-30T17:09:17.324Z,7.50
2017-12-30T17:11:44.905Z,7.50
2017-12-30T17:14:13.232Z,7.40
2017-12-30T17:16:40.784Z,7.40
2017-12-30T17:19:08.340Z,7.30
2017-12-30T17:21:35.897Z,7.30
2017-12-30T17:24:03.498Z,7.40
2017-12-30T17:26:31.830Z,7.30
2017-12-30T17:28:59.411Z,7.30
2017-12-30T17:31:26.995Z,7.30
2017-12-30T17:33:54.614Z,7.30
2017-12-30T17:36:22.215Z,7.40
2017-12-30T17:38:49.871Z,7.40
2017-12-30T17:41:17.448Z,7.50
2017-12-30T17:43:45.055Z,7.60
2017-12-30T17:46:12.588Z,7.70
2017-12-30T17:48:40.915Z,7.60
2017-12-30T17:51:08.465Z,7.60
2017-12-30T17:53:35.958Z,7.70
2017-12-30T17:56:03.514Z,7.70
2017-12-30T17:58:31.056Z,7.70
2017-12-30T18:00:58.622Z,7.70
2017-12-30T18:03:26.152Z,7.70
2017-12-30T18:05:53.717Z,7.70
2017-12-30T18:08:21.214Z,7.80
2017-12-30T18:10:48.773Z,7.80
2017-12-30T18:13:16.314Z,7.80
2017-12-30T18:15:43.866Z,7.80
2017-12-30T18:18:11.418Z,7.90
2017-12-30T18:20:38.926Z,7.80
2017-12-30T18:23:06.460Z,7.80
2017-12-30T18:25:34.741Z,7.70
2017-12-30T18:28:02.290Z,7.70
2017-12-30T18:30:29.854Z,7.90
2017-12-30T18:32:57.360Z,7.90
2017-12-30T18:35:24.969Z,7.80
2017-12-30T18:37:52.474Z,7.80
2017-12-30T18:40:20.749Z,7.80
2017-12-30T18:42:49.010Z,7.90
2017-12-30T18:45:17.332Z,8.00
2017-12-30T18:47:44.830Z,7.90
2017-12-30T18:50:12.376Z,7.90
2017-12-30T18:52:39.923Z,7.90
2017-12-30T18:55:07.473Z,7.90
2017-12-30T18:57:35.042Z,7.80
2017-12-30T19:00:02.593Z,7.90
2017-12-30T19:02:30.117Z,7.90
2017-12-30T19:04:57.663Z,8.00
2017-12-30T19:07:25.997Z,8.00
2017-12-30T19:09:53.533Z,8.00
2017-12-30T19:12:21.097Z,8.00
2017-12-30T19:14:48.641Z,8.00
2017-12-30T19:17:16.154Z,8.10
2017-12-30T19:19:43.691Z,8.00
2017-12-30T19:22:11.198Z,8.00
2017-12-30T19:24:39.467Z,8.00
2017-12-30T19:27:07.794Z,8.00
2017-12-30T19:29:35.341Z,8.00
2017-12-30T19:32:02.910Z,8.10
2017-12-30T19:34:30.467Z,8.20
2017-12-30T19:36:58.031Z,8.10
2017-12-30T19:39:25.581Z,8.10
2017-12-30T19:41:53.153Z,8.30
2017-12-30T19:44:20.702Z,8.30
2017-12-30T19:46:48.244Z,8.30
2017-12-30T19:49:15.801Z,8.30
2017-12-30T19:51:43.358Z,8.20
2017-12-30T19:54:10.917Z,8.30
2017-12-30T19:56:38.456Z,8.10
2017-12-30T19:59:06.788Z,8.20
2017-12-30T20:01:34.334Z,8.20
2017-12-30T20:04:01.899Z,8.20
2017-12-30T20:06:29.447Z,8.20
2017-12-30T20:08:57.004Z,8.20
2017-12-30T20:11:24.550Z,8.10
2017-12-30T20:13:52.113Z,8.00
2017-12-30T20:16:19.666Z,8.20
2017-12-30T20:18:47.225Z,8.20
2017-12-30T20:21:14.765Z,8.20
2017-12-30T20:23:43.097Z,8.30
2017-12-30T20:26:10.648Z,8.30
2017-12-30T20:28:38.210Z,8.30
2017-12-30T20:31:05.815Z,8.40
2017-12-30T20:33:34.276Z,8.30
2017-12-30T20:36:02.795Z,8.20
2017-12-30T20:38:30.472Z,8.20
2017-12-30T20:40:58.049Z,8.20
2017-12-30T20:43:25.619Z,8.30
2017-12-30T20:45:53.194Z,8.30
2017-12-30T20:48:20.737Z,8.30
2017-12-30T20:50:48.301Z,8.30
2017-12-30T20:53:15.853Z,8.30
2017-12-30T20:55:43.417Z,8.30
2017-12-30T20:58:10.966Z,8.30
2017-12-30T21:00:38.529Z,8.20
2017-12-30T21:03:06.845Z,8.30
2017-12-30T21:05:35.366Z,8.20
2017-12-30T21:08:02.914Z,8.20
2017-12-30T21:10:30.477Z,8.00
2017-12-30T21:12:58.016Z,8.00
2017-12-30T21:15:26.341Z,8.10
2017-12-30T21:17:53.882Z,8.10
2017-12-30T21:20:21.446Z,8.00
2017-12-30T21:22:48.991Z,8.10
2017-12-30T21:25:16.579Z,8.10
2017-12-30T21:27:44.434Z,8.20
2017-12-30T21:30:13.363Z,8.10
2017-12-30T21:32:41.290Z,8.10
2017-12-30T21:35:08.976Z,8.20
2017-12-30T21:37:36.616Z,8.20
2017-12-30T21:40:04.171Z,8.10
2017-12-30T21:42:31.726Z,8.10
2017-12-30T21:44:59.567Z,8.20
2017-12-30T21:47:27.960Z,8.10
2017-12-30T21:49:55.509Z,8.10
2017-12-30T21:52:23.742Z,8.10
2017-12-30T21:54:51.328Z,8.10
2017-12-30T21:57:19.853Z,8.00
2017-12-30T21:59:47.406Z,8.00
2017-12-30T22:02:14.974Z,8.10
2017-12-30T22:04:42.661Z,8.20
2017-12-30T22:07:10.482Z,8.20
2017-12-30T22:09:38.449Z,8.20
2017-12-30T22:12:06.281Z,8.20
2017-12-30T22:14:33.925Z,8.20
2017-12-30T22:17:01.690Z,8.10
2017-12-30T22:19:29.237Z,8.10
2017-12-30T22:21:56.876Z,8.20
2017-12-30T22:24:25.237Z,8.20
2017-12-30T22:26:52.848Z,8.20
2017-12-30T22:29:20.415Z,8.20
2017-12-30T22:31:48.045Z,8.30
2017-12-30T22:34:15.804Z,8.30
2017-12-30T22:36:43.412Z,8.40
2017-12-30T22:39:11.176Z,8.40
2017-12-30T22:41:39.073Z,8.40
2017-12-30T22:44:07.052Z,8.40
2017-12-30T22:46:34.932Z,8.30
2017-12-30T22:49:02.535Z,8.40
2017-12-30T22:51:30.111Z,8.40
2017-12-30T22:53:58.441Z,8.40
2017-12-30T22:56:25.994Z,8.40
2017-12-30T22:58:53.570Z,8.40
2017-12-30T23:01:21.906Z,8.30
2017-12-30T23:03:49.555Z,8.30
2017-12-30T23:06:17.109Z,8.40
2017-12-30T23:08:45.437Z,8.40
2017-12-30T23:11:12.985Z,8.40
2017-12-30T23:13:40.549Z,8.40
2017-12-30T23:16:08.861Z,8.50
2017-12-30T23:18:37.198Z,8.50
2017-12-30T23:21:04.742Z,8.50
2017-12-30T23:23:32.298Z,8.50
2017-12-30T23:25:59.849Z,8.40
2017-12-30T23:28:27.409Z,8.40
2017-12-30T23:30:54.968Z,8.50
2017-12-30T23:33:22.540Z,8.50
2017-12-30T23:35:50.088Z,8.60
2017-12-30T23:38:17.641Z,8.50
2017-12-30T23:40:45.208Z,8.50
2017-12-30T23:43:12.758Z,8.50
2017-12-30T23:45:40.316Z,8.60
2017-12-30T23:48:07.858Z,8.60
2017-12-30T23:50:36.182Z,8.60
2017-12-30T23:53:03.730Z,8.60
2017-12-30T23:55:31.301Z,8.70
2017-12-30T23:57:58.841Z,8.70
